Time;durP1;ratioP1;P1;durP2;ratioP2;P2;SDS_P1;SDS_P2;PMS_P1;PMS_P2;Temp;Humidity;BMP_temperature;BMP_pressure;BME280_temperature;BME280_humidity;BME280_pressure;Samples;Min_cycle;Max_cycle;Signal;HPM_P1;HPM_P2
2022/04/25 00:00:43;;;;;;;8.93;4.95;;;;;;;9.95;89.12;100772.34;6374540;23;20016;-71
2022/04/25 00:03:14;;;;;;;7.70;5.10;;;;;;;9.91;89.36;100780.56;6373614;23;20009;-70
2022/04/25 00:05:45;;;;;;;8.05;4.72;;;;;;;9.92;89.51;100774.38;6374197;23;20008;-71
2022/04/25 00:08:17;;;;;;;8.38;5.15;;;;;;;9.81;89.77;100775.28;6374186;23;20017;-71
2022/04/25 00:10:48;;;;;;;7.85;5.20;;;;;;;9.71;91.03;100777.00;6348405;23;20370;-70
2022/04/25 00:13:20;;;;;;;6.25;4.72;;;;;;;9.69;91.46;100784.13;6373955;23;20013;-71
2022/04/25 00:15:52;;;;;;;8.32;4.88;;;;;;;9.62;91.52;100781.22;6373547;23;20341;-70
2022/04/25 00:18:23;;;;;;;8.70;5.03;;;;;;;9.62;91.92;100780.34;6374690;23;20002;-71
2022/04/25 00:20:55;;;;;;;9.57;4.93;;;;;;;9.61;91.36;100789.16;6374256;23;20246;-71
2022/04/25 00:23:26;;;;;;;8.32;4.95;;;;;;;9.55;92.70;100787.91;6373727;23;20036;-71
2022/04/25 00:25:58;;;;;;;7.35;5.68;;;;;;;9.55;93.77;100787.06;6374111;23;20010;-71
2022/04/25 00:28:29;;;;;;;8.25;5.05;;;;;;;9.40;93.51;100776.06;6374172;23;20057;-70
2022/04/25 00:31:00;;;;;;;8.00;5.35;;;;;;;9.46;93.83;100792.06;6373526;23;20009;-72
2022/04/25 00:33:32;;;;;;;7.22;6.03;;;;;;;9.42;94.05;100787.22;6374227;23;20081;-73
2022/04/25 00:36:03;;;;;;;8.95;5.40;;;;;;;9.36;94.41;100788.56;6373935;23;20010;-72
2022/04/25 00:38:35;;;;;;;8.02;5.80;;;;;;;9.28;95.12;100783.13;6373350;23;20085;-72
2022/04/25 00:41:06;;;;;;;8.43;5.63;;;;;;;9.22;95.34;100781.81;6374192;23;20010;-71
2022/04/25 00:43:38;;;;;;;9.75;5.88;;;;;;;9.20;95.98;100782.88;6374300;23;20012;-71
2022/04/25 00:46:20;;;;;;;8.15;5.80;;;;;;;9.29;96.69;100782.16;6374272;23;20092;-71
2022/04/25 00:48:52;;;;;;;6.82;5.50;;;;;;;9.15;96.58;100785.03;6372812;23;19998;-72
2022/04/25 00:51:24;;;;;;;6.65;5.60;;;;;;;9.21;96.62;100782.75;6348203;23;20341;-71
2022/04/25 00:53:55;;;;;;;8.40;5.95;;;;;;;9.12;97.65;100782.66;6374043;23;20006;-70
2022/04/25 00:56:27;;;;;;;12.15;5.93;;;;;;;9.05;97.67;100787.53;6374530;23;20394;-71
2022/04/25 00:58:58;;;;;;;14.55;6.38;;;;;;;8.97;98.54;100775.06;6373496;23;20489;-71
2022/04/25 01:01:31;;;;;;;13.15;7.07;;;;;;;8.96;98.75;100778.66;6373747;23;20488;-71
2022/04/25 01:04:04;;;;;;;8.05;5.75;;;;;;;8.95;99.41;100781.41;6373538;23;20370;-71
2022/04/25 01:06:35;;;;;;;8.02;5.53;;;;;;;8.91;99.74;100775.56;6374244;23;20386;-71
2022/04/25 01:09:06;;;;;;;11.80;6.63;;;;;;;8.83;100.00;100777.97;6373838;23;20006;-71
2022/04/25 01:11:37;;;;;;;14.45;6.50;;;;;;;8.80;100.00;100775.59;6373619;23;20136;-72
2022/04/25 01:14:15;;;;;;;8.65;6.40;;;;;;;8.89;100.00;100779.25;6373532;23;20096;-70
2022/04/25 01:16:47;;;;;;;11.18;6.55;;;;;;;8.75;100.00;100781.19;6373275;23;20494;-70
2022/04/25 01:19:19;;;;;;;9.65;6.15;;;;;;;8.77;100.00;100784.50;6374227;23;20032;-70
2022/04/25 01:21:57;;;;;;;10.18;6.78;;;;;;;8.76;100.00;100777.59;6373516;23;20016;-71
2022/04/25 01:27:18;;;;;;;11.57;6.75;;;;;;;8.64;100.00;100775.97;6373922;23;20013;-71
2022/04/25 01:29:52;;;;;;;11.82;7.43;;;;;;;8.61;100.00;100777.97;6374036;23;20386;-71
2022/04/25 01:32:24;;;;;;;9.27;7.25;;;;;;;8.56;100.00;100772.25;6373994;23;20068;-71
2022/04/25 01:34:55;;;;;;;9.30;6.30;;;;;;;8.57;100.00;100779.16;6372368;23;20327;-71
2022/04/25 01:37:27;;;;;;;8.57;6.15;;;;;;;8.46;100.00;100769.53;6373469;23;20016;-70
2022/04/25 01:39:58;;;;;;;12.02;7.53;;;;;;;8.58;100.00;100779.03;6373589;23;20018;-71
2022/04/25 01:42:30;;;;;;;13.40;7.30;;;;;;;8.45;100.00;100783.56;6373330;23;20016;-71
2022/04/25 01:45:01;;;;;;;8.57;7.32;;;;;;;8.41;100.00;100787.31;6373502;23;20400;-71
2022/04/25 01:47:32;;;;;;;12.15;6.93;;;;;;;8.40;100.00;100788.28;6373712;23;20006;-70
2022/04/25 01:50:04;;;;;;;9.77;6.68;;;;;;;8.41;100.00;100788.19;6373065;23;20014;-71
2022/04/25 01:52:35;;;;;;;11.85;7.10;;;;;;;8.32;100.00;100788.00;6373510;23;20013;-71
2022/04/25 01:55:07;;;;;;;9.73;7.43;;;;;;;8.32;100.00;100786.22;6373095;23;20009;-73
2022/04/25 01:57:38;;;;;;;9.85;7.18;;;;;;;8.32;100.00;100786.22;6347274;23;20065;-70
2022/04/25 02:00:10;;;;;;;9.40;7.47;;;;;;;8.28;100.00;100785.63;6372631;23;20013;-70
2022/04/25 02:02:41;;;;;;;12.70;7.15;;;;;;;8.24;100.00;100786.81;6345904;23;20014;-73
2022/04/25 02:05:13;;;;;;;11.15;7.35;;;;;;;8.24;100.00;100784.19;6372265;23;20457;-70
2022/04/25 02:07:44;;;;;;;10.68;7.15;;;;;;;7.92;100.00;100741.47;6372672;23;20108;-70
2022/04/25 02:10:15;;;;;;;9.43;6.93;;;;;;;8.14;100.00;100780.63;6372483;23;20016;-70
2022/04/25 02:12:46;;;;;;;12.13;7.47;;;;;;;8.11;100.00;100780.88;6373450;23;20100;-70
2022/04/25 02:15:18;;;;;;;9.85;7.53;;;;;;;8.05;100.00;100779.53;6373477;23;20013;-71
2022/04/25 02:17:49;;;;;;;11.18;8.00;;;;;;;8.05;100.00;100783.94;6372685;23;20097;-69
2022/04/25 02:20:21;;;;;;;11.13;7.88;;;;;;;8.02;100.00;100777.16;6373526;23;20459;-70
2022/04/25 02:22:52;;;;;;;9.60;7.70;;;;;;;8.00;100.00;100781.69;6372801;23;20013;-70
2022/04/25 02:25:23;;;;;;;12.30;8.02;;;;;;;8.09;100.00;100779.31;6372698;23;20430;-70
2022/04/25 02:27:55;;;;;;;13.00;7.95;;;;;;;8.04;100.00;100771.84;6372571;23;20452;-70
2022/04/25 02:30:26;;;;;;;12.60;7.78;;;;;;;7.99;100.00;100780.03;6373577;23;20005;-70
2022/04/25 02:32:57;;;;;;;13.75;8.27;;;;;;;7.89;100.00;100780.81;6373170;23;20018;-70
2022/04/25 02:35:28;;;;;;;16.65;7.88;;;;;;;7.86;100.00;100778.44;6372043;23;20002;-70
2022/04/25 02:38:00;;;;;;;12.55;7.85;;;;;;;7.80;100.00;100777.94;6373087;23;20018;-71
2022/04/25 02:40:31;;;;;;;12.50;8.20;;;;;;;7.85;100.00;100784.59;6373414;23;20016;-70
2022/04/25 02:43:02;;;;;;;11.30;7.20;;;;;;;7.80;100.00;100782.31;6372452;23;20014;-70
2022/04/25 02:45:35;;;;;;;11.57;8.40;;;;;;;7.77;100.00;100780.78;6372935;23;20010;-70
2022/04/25 02:48:06;;;;;;;15.68;9.10;;;;;;;7.75;100.00;100777.44;6373283;23;20422;-70
2022/04/25 02:50:38;;;;;;;15.32;8.57;;;;;;;7.81;100.00;100781.38;6372709;23;20013;-70
2022/04/25 02:53:09;;;;;;;18.27;8.98;;;;;;;7.69;100.00;100780.53;6373407;23;21281;-70
2022/04/25 02:55:41;;;;;;;10.27;7.82;;;;;;;7.73;100.00;100778.53;6373328;23;20017;-69
2022/04/25 02:58:14;;;;;;;9.13;7.63;;;;;;;7.68;100.00;100781.44;6346644;23;20060;-71
2022/04/25 03:00:46;;;;;;;11.23;8.73;;;;;;;7.67;100.00;100777.19;6372548;23;20010;-70
2022/04/25 03:03:19;;;;;;;13.07;8.50;;;;;;;7.69;100.00;100784.88;6374169;23;20009;-70
2022/04/25 03:05:52;;;;;;;12.60;9.07;;;;;;;7.60;100.00;100781.19;6372385;23;20028;-71
2022/04/25 03:08:23;;;;;;;11.60;8.43;;;;;;;7.57;100.00;100784.00;6370697;23;20311;-70
2022/04/25 03:10:56;;;;;;;11.20;8.20;;;;;;;7.48;100.00;100776.88;6372134;23;20025;-70
2022/04/25 03:13:27;;;;;;;14.33;9.47;;;;;;;7.51;100.00;100774.03;6373556;23;20002;-70
2022/04/25 03:15:59;;;;;;;11.48;8.80;;;;;;;7.57;100.00;100776.19;6372474;23;20150;-70
2022/04/25 03:18:31;;;;;;;15.15;8.73;;;;;;;7.54;100.00;100777.25;6372286;23;20081;-70
2022/04/25 03:21:02;;;;;;;12.27;8.77;;;;;;;7.52;100.00;100780.91;6372950;23;20009;-70
2022/04/25 03:23:36;;;;;;;11.35;8.75;;;;;;;7.43;100.00;100777.22;6373074;23;20037;-70
2022/04/25 03:26:07;;;;;;;;;;;;;;;7.95;100.00;100781.16;6373126;23;20085;-71
2022/04/25 03:28:38;;;;;;;13.85;8.20;;;;;;;7.45;100.00;100777.91;6372505;23;20351;-70
2022/04/25 03:31:09;;;;;;;11.02;8.23;;;;;;;7.39;100.00;100786.19;6373008;23;20094;-71
2022/04/25 03:33:41;;;;;;;11.75;8.52;;;;;;;7.41;100.00;100784.28;6372201;23;20242;-70
2022/04/25 03:36:12;;;;;;;13.25;8.77;;;;;;;7.44;100.00;100791.06;6372387;23;20002;-70
2022/04/25 03:38:44;;;;;;;13.75;8.23;;;;;;;7.37;100.00;100789.84;6372459;23;20556;-70
2022/04/25 03:41:15;;;;;;;9.65;8.00;;;;;;;7.29;100.00;100782.59;6368876;23;20085;-69
2022/04/25 03:43:46;;;;;;;11.65;8.75;;;;;;;7.23;100.00;100789.03;6372844;23;20006;-70
2022/04/25 03:46:17;;;;;;;15.02;9.35;;;;;;;7.16;100.00;100798.28;6372433;23;20096;-71
2022/04/25 03:48:49;;;;;;;12.18;8.70;;;;;;;7.13;100.00;100795.88;6371601;23;20006;-70
2022/04/25 03:51:23;;;;;;;12.43;8.48;;;;;;;7.14;100.00;100801.91;6372605;23;20306;-70
2022/04/25 03:53:55;;;;;;;13.55;8.95;;;;;;;7.13;100.00;100802.88;6372608;23;20005;-71
2022/04/25 03:59:16;;;;;;;13.27;9.45;;;;;;;6.96;100.00;100796.22;6374260;23;20010;-70
2022/04/25 04:01:47;;;;;;;12.35;8.65;;;;;;;7.02;100.00;100799.25;6373780;23;20010;-71
2022/04/25 04:04:19;;;;;;;13.35;9.10;;;;;;;6.97;100.00;100798.75;6374184;23;20033;-70
2022/04/25 04:06:50;;;;;;;13.40;8.98;;;;;;;6.96;100.00;100794.44;6371809;23;20002;-70
2022/04/25 04:12:16;;;;;;;13.57;9.43;;;;;;;7.13;100.00;100802.88;6374515;23;20017;-70
2022/04/25 04:14:47;;;;;;;13.20;9.57;;;;;;;7.02;100.00;100794.03;6373768;23;20379;-72
2022/04/25 04:17:18;;;;;;;15.13;9.25;;;;;;;6.96;100.00;100807.47;6374166;23;20052;-70
2022/04/25 04:19:52;;;;;;;13.43;9.27;;;;;;;6.92;100.00;100813.00;6374858;23;20028;-70
2022/04/25 04:22:25;;;;;;;;;;;;;;;7.42;100.00;100814.63;6374380;23;20009;-71
2022/04/25 04:25:03;;;;;;;11.17;8.97;;;;;;;6.99;100.00;100812.47;6373685;23;19916;-70
2022/04/25 04:27:35;;;;;;;17.30;10.25;;;;;;;6.93;100.00;100812.06;6374403;23;20010;-70
2022/04/25 04:30:09;;;;;;;13.45;9.98;;;;;;;6.86;100.00;100810.81;6374300;23;20568;-70
2022/04/25 04:32:41;;;;;;;15.13;10.20;;;;;;;6.80;100.00;100818.13;6374073;23;20006;-70
2022/04/25 04:35:16;;;;;;;14.35;10.48;;;;;;;6.78;100.00;100819.16;6374294;23;20013;-69
2022/04/25 04:37:47;;;;;;;13.15;10.27;;;;;;;6.74;100.00;100815.97;6374161;23;20006;-69
2022/04/25 04:40:30;;;;;;;11.45;10.13;;;;;;;6.72;100.00;100825.66;6373175;23;20033;-72
2022/04/25 04:43:02;;;;;;;16.83;10.57;;;;;;;6.78;100.00;100817.41;6374356;23;20025;-70
2022/04/25 04:45:34;;;;;;;13.00;9.95;;;;;;;6.72;100.00;100835.22;6374252;23;20002;-70
2022/04/25 04:48:05;;;;;;;13.57;10.55;;;;;;;6.71;100.00;100828.38;6374312;23;20208;-70
2022/04/25 04:50:36;;;;;;;13.90;10.13;;;;;;;6.69;100.00;100830.22;6372408;23;20036;-70
2022/04/25 04:53:08;;;;;;;13.50;10.70;;;;;;;6.71;100.00;100825.75;6374110;23;20062;-69
2022/04/25 04:55:39;;;;;;;13.30;10.30;;;;;;;6.70;100.00;100831.88;6373452;23;20010;-69
2022/04/25 04:58:10;;;;;;;16.08;10.48;;;;;;;6.74;100.00;100834.19;6374336;23;20002;-69
2022/04/25 05:00:44;;;;;;;14.38;10.80;;;;;;;6.71;100.00;100844.81;6374341;23;20017;-69
2022/04/25 05:03:15;;;;;;;15.05;10.85;;;;;;;6.70;100.00;100847.50;6374128;23;20017;-69
2022/04/25 05:05:47;;;;;;;22.23;11.05;;;;;;;6.73;100.00;100844.69;6373862;23;20794;-69
2022/04/25 05:08:19;;;;;;;18.13;11.45;;;;;;;6.75;100.00;100853.25;6373215;23;20073;-69
2022/04/25 05:10:51;;;;;;;16.50;11.48;;;;;;;6.82;100.00;100852.72;6373742;23;20456;-69
2022/04/25 05:13:22;;;;;;;18.10;10.93;;;;;;;6.85;100.00;100863.84;6373696;23;20010;-69
2022/04/25 05:15:54;;;;;;;16.35;11.48;;;;;;;6.87;100.00;100862.00;6373335;23;20071;-69
2022/04/25 05:18:25;;;;;;;16.23;12.18;;;;;;;6.90;100.00;100861.78;6373965;23;20456;-69
2022/04/25 05:20:56;;;;;;;20.42;12.05;;;;;;;6.97;100.00;100845.63;6374094;23;20077;-69
2022/04/25 05:23:29;;;;;;;16.30;11.70;;;;;;;7.03;100.00;100855.59;6373148;23;20071;-69
2022/04/25 05:26:00;;;;;;;18.08;11.38;;;;;;;7.11;100.00;100862.88;6373417;23;20377;-69
2022/04/25 05:28:32;;;;;;;17.60;11.93;;;;;;;7.23;100.00;100866.38;6372315;23;20052;-69
2022/04/25 05:31:03;;;;;;;18.42;12.70;;;;;;;7.29;100.00;100865.97;6371689;23;20068;-69
2022/04/25 05:33:34;;;;;;;16.75;11.80;;;;;;;7.40;100.00;100867.81;6347260;23;20049;-69
2022/04/25 05:36:06;;;;;;;19.35;13.73;;;;;;;7.39;100.00;100871.38;6373020;23;20037;-69
2022/04/25 05:38:37;;;;;;;14.80;11.70;;;;;;;7.55;100.00;100871.94;6373259;23;20406;-69
2022/04/25 05:41:10;;;;;;;16.83;12.52;;;;;;;7.60;100.00;100882.03;6372711;23;20006;-69
2022/04/25 05:43:42;;;;;;;15.47;11.77;;;;;;;7.72;100.00;100883.75;6373268;23;20002;-69
2022/04/25 05:46:13;;;;;;;17.42;12.13;;;;;;;7.75;100.00;100878.31;6373587;23;20388;-69
2022/04/25 05:54:26;;;;;;;16.08;12.63;;;;;;;7.95;100.00;100885.50;6373335;23;20017;-69
2022/04/25 05:56:57;;;;;;;16.23;12.05;;;;;;;8.03;100.00;100898.00;6373137;23;20085;-72
2022/04/25 05:59:29;;;;;;;15.10;11.75;;;;;;;7.97;100.00;100891.47;6371106;23;20036;-71
2022/04/25 06:02:01;;;;;;;16.00;11.80;;;;;;;8.08;100.00;100900.28;6373310;23;20057;-71
2022/04/25 06:04:32;;;;;;;15.75;12.43;;;;;;;8.08;100.00;100897.69;6373410;23;20389;-71
2022/04/25 06:07:05;;;;;;;17.77;12.10;;;;;;;8.11;100.00;100902.69;6373266;23;20014;-70
2022/04/25 06:09:36;;;;;;;14.32;12.13;;;;;;;8.16;100.00;100900.56;6373664;23;20006;-70
2022/04/25 06:12:08;;;;;;;19.88;13.98;;;;;;;8.16;100.00;100905.78;6351328;23;20006;-70
2022/04/25 06:14:40;;;;;;;14.77;12.73;;;;;;;8.26;100.00;100899.78;6371398;23;20010;-70
2022/04/25 06:17:13;;;;;;;15.88;12.32;;;;;;;8.35;100.00;100902.63;6365423;23;20644;-71
2022/04/25 06:19:45;;;;;;;17.42;12.35;;;;;;;8.43;100.00;100914.19;6371488;23;20009;-71
2022/04/25 06:22:20;;;;;;;19.65;12.98;;;;;;;8.47;100.00;100915.63;6372779;23;20013;-70
2022/04/25 06:24:51;;;;;;;15.23;12.02;;;;;;;8.52;100.00;100916.13;6366662;23;20006;-70
2022/04/25 06:27:23;;;;;;;16.85;12.68;;;;;;;8.58;100.00;100920.06;6369616;23;20033;-71
2022/04/25 06:29:54;;;;;;;18.05;13.60;;;;;;;8.68;100.00;100917.59;6370418;23;20056;-72
2022/04/25 06:32:27;;;;;;;17.45;13.57;;;;;;;8.73;100.00;100923.28;6371310;23;20330;-70
2022/04/25 06:34:59;;;;;;;17.10;13.40;;;;;;;8.76;100.00;100920.44;6371055;23;20319;-70
2022/04/25 06:37:30;;;;;;;16.33;12.15;;;;;;;8.80;100.00;100916.66;6371978;23;20005;-71
2022/04/25 06:40:02;;;;;;;16.98;13.70;;;;;;;8.80;100.00;100921.88;6372008;23;20044;-69
2022/04/25 06:42:33;;;;;;;15.60;13.43;;;;;;;8.82;100.00;100916.53;6372948;23;20001;-70
2022/04/25 06:45:05;;;;;;;15.48;13.65;;;;;;;8.79;100.00;100915.00;6371918;23;20096;-69
2022/04/25 06:47:36;;;;;;;14.88;13.00;;;;;;;8.86;100.00;100921.38;6346032;23;20001;-73
2022/04/25 06:50:10;;;;;;;24.27;14.13;;;;;;;8.88;100.00;100918.69;6371269;23;20016;-70
2022/04/25 06:52:42;;;;;;;;;;;;;;;9.34;100.00;100917.72;6373187;23;20006;-72
2022/04/25 06:55:14;;;;;;;18.98;13.30;;;;;;;9.08;100.00;100917.97;6371862;23;19908;-70
2022/04/25 06:57:47;;;;;;;17.13;13.27;;;;;;;9.08;100.00;100919.75;6372132;23;20006;-70
2022/04/25 07:00:20;;;;;;;16.90;13.90;;;;;;;9.13;100.00;100930.66;6372034;23;20014;-69
2022/04/25 07:02:51;;;;;;;21.35;14.13;;;;;;;9.15;100.00;100932.22;6372249;23;20006;-70
2022/04/25 07:05:24;;;;;;;21.48;15.05;;;;;;;9.14;100.00;100929.75;6371799;23;20005;-70
2022/04/25 07:07:55;;;;;;;20.35;14.50;;;;;;;9.24;100.00;100931.53;6371805;23;20006;-70
2022/04/25 07:10:27;;;;;;;17.95;14.00;;;;;;;9.24;100.00;100928.91;6372230;23;20072;-70
2022/04/25 07:12:59;;;;;;;16.27;14.48;;;;;;;9.23;100.00;100924.63;6372222;23;20009;-70
2022/04/25 07:15:32;;;;;;;15.80;14.10;;;;;;;9.33;100.00;100935.19;6369476;23;20385;-70
2022/04/25 07:18:03;;;;;;;18.77;15.07;;;;;;;9.35;100.00;100932.47;6370839;23;20028;-70
2022/04/25 07:20:35;;;;;;;18.08;15.48;;;;;;;9.40;100.00;100936.41;6372003;23;20009;-70
2022/04/25 07:28:48;;;;;;;19.70;15.32;;;;;;;9.63;100.00;100936.38;6371915;23;20009;-70
2022/04/25 07:31:20;;;;;;;16.00;14.30;;;;;;;9.63;100.00;100921.50;6373523;23;20117;-70
2022/04/25 07:33:56;;;;;;;17.65;15.75;;;;;;;9.69;100.00;100928.00;6373108;23;20081;-71
2022/04/25 07:36:28;;;;;;;18.35;15.20;;;;;;;9.77;100.00;100945.72;6372279;23;20010;-68
2022/04/25 07:38:59;;;;;;;17.27;15.32;;;;;;;9.85;100.00;100949.41;6371635;23;20533;-70
2022/04/25 07:41:31;;;;;;;19.77;16.00;;;;;;;9.86;100.00;100939.75;6370631;23;20006;-71
2022/04/25 07:44:03;;;;;;;18.83;16.13;;;;;;;9.88;100.00;100937.84;6373912;23;20481;-72
2022/04/25 07:46:36;;;;;;;18.83;15.77;;;;;;;9.89;100.00;100942.13;6371933;23;20088;-71
2022/04/25 07:49:09;;;;;;;18.10;15.88;;;;;;;9.97;100.00;100951.03;6372025;23;20010;-70
2022/04/25 07:51:40;;;;;;;;;;;;;;;10.37;100.00;100952.22;6373545;23;20006;-69
2022/04/25 07:54:12;;;;;;;19.03;14.77;;;;;;;10.07;100.00;100958.94;6371230;23;19995;-71
2022/04/25 07:56:43;;;;;;;19.65;15.98;;;;;;;10.09;100.00;100961.47;6372326;23;20245;-71
2022/04/25 07:59:15;;;;;;;19.90;16.30;;;;;;;10.04;100.00;100960.97;6372620;23;20095;-69
2022/04/25 08:01:47;;;;;;;17.33;15.48;;;;;;;9.98;100.00;100959.72;6372276;23;20127;-72
2022/04/25 08:04:18;;;;;;;19.13;16.45;;;;;;;9.98;100.00;100964.94;6346830;23;20041;-72
2022/04/25 08:06:50;;;;;;;19.23;16.33;;;;;;;9.99;100.00;100964.81;6370967;23;20005;-71
2022/04/25 08:09:21;;;;;;;23.23;16.77;;;;;;;9.96;100.00;100964.22;6373098;23;20421;-69
2022/04/25 08:17:56;;;;;;;19.20;16.33;;;;;;;9.93;100.00;100973.16;6372422;23;20013;-72
2022/04/25 08:20:23;;;;;;;19.40;17.40;;;;;;;9.90;100.00;100976.03;6370568;23;20361;-72
2022/04/25 08:22:58;;;;;;;18.33;16.42;;;;;;;9.91;100.00;100979.47;6370012;23;20018;-72
2022/04/25 08:25:32;;;;;;;20.90;17.13;;;;;;;9.84;100.00;100981.72;6371832;23;20010;-70
2022/04/25 08:28:07;;;;;;;19.70;17.52;;;;;;;9.86;100.00;100985.06;6347126;23;20025;-71
2022/04/25 08:30:38;;;;;;;20.58;18.00;;;;;;;9.80;100.00;100995.19;6369636;23;20006;-71
2022/04/25 08:33:11;;;;;;;22.92;18.77;;;;;;;9.82;100.00;100990.69;6372471;23;20032;-71
2022/04/25 08:35:42;;;;;;;20.37;18.10;;;;;;;9.86;100.00;100997.31;6371319;23;20052;-71
2022/04/25 08:38:13;;;;;;;20.27;18.13;;;;;;;9.83;100.00;101001.00;6370424;23;20033;-71
2022/04/25 08:40:46;;;;;;;21.52;19.23;;;;;;;9.83;100.00;101008.03;6372670;23;20029;-69
2022/04/25 08:43:18;;;;;;;24.02;18.92;;;;;;;9.89;100.00;101008.38;6370903;23;20010;-70
2022/04/25 08:45:51;;;;;;;21.98;19.75;;;;;;;9.96;100.00;101008.72;6373048;23;20097;-69
2022/04/25 08:48:25;;;;;;;25.42;19.95;;;;;;;9.83;100.00;101011.47;6372590;23;20324;-72
2022/04/25 08:50:58;;;;;;;23.25;19.75;;;;;;;9.89;100.00;101011.00;6373365;23;20022;-69
2022/04/25 08:53:31;;;;;;;23.63;19.85;;;;;;;9.79;100.00;101007.44;6373603;23;20010;-69
2022/04/25 08:56:03;;;;;;;22.17;19.92;;;;;;;9.77;100.00;101017.19;6371837;23;20081;-70
2022/04/25 08:58:39;;;;;;;21.52;19.08;;;;;;;9.87;100.00;101017.31;6370517;23;20006;-69
2022/04/25 09:01:11;;;;;;;23.17;20.30;;;;;;;9.81;100.00;101023.88;6373353;23;20018;-69
2022/04/25 09:03:43;;;;;;;22.88;20.50;;;;;;;9.84;100.00;101017.53;6370306;23;20036;-69
2022/04/25 09:06:14;;;;;;;22.25;19.90;;;;;;;9.76;100.00;101028.59;6372633;23;20047;-72
2022/04/25 09:08:47;;;;;;;22.48;20.17;;;;;;;9.83;100.00;101028.97;6370789;23;20006;-71
2022/04/25 09:14:10;;;;;;;22.83;20.08;;;;;;;9.71;100.00;101042.06;6369803;23;20026;-70
2022/04/25 09:16:42;;;;;;;25.40;20.00;;;;;;;9.77;100.00;101043.34;6371718;23;20006;-70
2022/04/25 09:19:14;;;;;;;24.75;21.55;;;;;;;9.77;100.00;101040.72;6372196;23;20006;-72
2022/04/25 09:21:45;;;;;;;24.65;21.65;;;;;;;9.78;100.00;101047.66;6373226;23;20014;-70
2022/04/25 09:24:22;;;;;;;23.17;20.38;;;;;;;9.78;100.00;101047.66;6371628;23;20009;-72
2022/04/25 09:27:12;;;;;;;26.15;22.30;;;;;;;9.91;100.00;101050.13;6372252;23;20425;-70
2022/04/25 09:29:46;;;;;;;25.98;22.42;;;;;;;9.79;100.00;101051.94;6372144;23;20092;-73
2022/04/25 09:32:19;;;;;;;25.05;22.45;;;;;;;9.89;100.00;101050.25;6372538;23;20025;-73
2022/04/25 09:35:05;;;;;;;24.15;21.55;;;;;;;9.92;100.00;101050.00;6345688;23;20111;-71
2022/04/25 09:37:42;;;;;;;25.10;22.15;;;;;;;9.92;100.00;101057.00;6372206;23;20009;-71
2022/04/25 09:40:19;;;;;;;26.13;21.85;;;;;;;9.94;100.00;101050.72;6370670;23;20021;-71
2022/04/25 09:43:11;;;;;;;27.52;23.00;;;;;;;9.99;100.00;101056.41;6371885;23;20100;-70
2022/04/25 09:45:44;;;;;;;25.48;22.75;;;;;;;9.88;100.00;101056.41;6367626;23;20034;-71
2022/04/25 09:48:16;;;;;;;28.67;24.02;;;;;;;9.84;100.00;101060.22;6371882;23;20009;-71
2022/04/25 09:51:07;;;;;;;25.30;22.70;;;;;;;10.08;100.00;101056.66;6372447;23;20656;-72
2022/04/25 09:53:53;;;;;;;25.52;22.73;;;;;;;10.01;100.00;101061.53;6367355;23;20081;-71
2022/04/25 09:56:30;;;;;;;27.38;23.17;;;;;;;10.01;100.00;101063.34;6365582;23;20029;-71
2022/04/25 09:59:06;;;;;;;24.73;21.60;;;;;;;10.04;100.00;101061.31;6370254;23;20092;-68
2022/04/25 10:01:43;;;;;;;23.80;21.02;;;;;;;10.02;100.00;101065.81;6372165;23;20005;-70
2022/04/25 10:04:36;;;;;;;23.83;20.98;;;;;;;10.12;100.00;101064.16;6345579;23;20070;-69
2022/04/25 10:07:07;;;;;;;26.98;23.92;;;;;;;10.06;100.00;101069.03;6372656;23;20069;-69
2022/04/25 10:09:40;;;;;;;24.45;21.08;;;;;;;10.04;100.00;101074.41;6369268;23;20102;-69
2022/04/25 10:12:11;;;;;;;23.67;21.20;;;;;;;10.04;100.00;101073.53;6372554;23;20014;-69
2022/04/25 10:14:43;;;;;;;23.42;19.98;;;;;;;9.96;100.00;101079.38;6372288;23;20337;-71
2022/04/25 10:17:16;;;;;;;22.45;20.15;;;;;;;10.02;100.00;101083.31;6371794;23;20120;-69
2022/04/25 10:19:50;;;;;;;22.25;20.05;;;;;;;9.97;100.00;101084.50;6367807;23;20429;-69
2022/04/25 10:22:22;;;;;;;20.75;18.73;;;;;;;9.98;100.00;101082.72;6369695;23;20013;-69
2022/04/25 10:24:54;;;;;;;20.88;18.80;;;;;;;9.91;100.00;101084.16;6369166;23;20362;-71
2022/04/25 10:27:32;;;;;;;20.08;18.10;;;;;;;10.06;100.00;101085.56;6370999;23;20484;-69
2022/04/25 10:30:17;;;;;;;21.38;18.95;;;;;;;10.14;100.00;101090.19;6371325;23;20016;-69
2022/04/25 10:32:49;;;;;;;21.60;19.40;;;;;;;10.09;100.00;101084.50;6371057;23;20004;-69
2022/04/25 10:35:31;;;;;;;20.73;18.52;;;;;;;10.17;100.00;101095.19;6370031;23;20338;-69
2022/04/25 10:38:47;;;;;;;19.90;17.90;;;;;;;10.27;100.00;101095.34;6372410;23;20025;-69
2022/04/25 10:44:21;;;;;;;19.48;17.60;;;;;;;10.19;100.00;101106.34;6368580;23;20429;-70
2022/04/25 10:47:13;;;;;;;19.90;17.98;;;;;;;10.30;100.00;101105.53;6371062;23;20010;-71
2022/04/25 10:49:55;;;;;;;20.00;18.02;;;;;;;10.22;100.00;101109.56;6371214;23;20014;-69
2022/04/25 10:55:21;;;;;;;19.45;17.55;;;;;;;10.19;100.00;101112.47;6369753;23;20663;-71
2022/04/25 10:58:01;;;;;;;19.70;17.65;;;;;;;10.22;100.00;101113.97;6371326;23;20025;-72
2022/04/25 11:03:16;;;;;;;20.08;18.17;;;;;;;10.20;100.00;101115.91;6371443;23;20029;-70
2022/04/25 11:05:49;;;;;;;19.08;17.17;;;;;;;10.13;100.00;101115.53;6346284;23;20029;-69
2022/04/25 11:08:24;;;;;;;20.42;18.10;;;;;;;10.16;100.00;101114.47;6373348;23;20002;-69
2022/04/25 11:10:58;;;;;;;21.33;18.05;;;;;;;10.14;100.00;101117.19;6373542;23;20044;-69
2022/04/25 11:13:35;;;;;;;18.80;17.00;;;;;;;10.16;100.00;101106.63;6373516;23;20513;-69
2022/04/25 11:16:25;;;;;;;19.38;17.38;;;;;;;10.28;100.00;101118.78;6373218;23;20412;-68
2022/04/25 11:19:22;;;;;;;18.95;17.15;;;;;;;10.37;100.00;101128.50;6372977;23;20335;-68
2022/04/25 11:21:55;;;;;;;18.70;16.60;;;;;;;10.23;100.00;101126.97;6374104;23;20017;-71
2022/04/25 11:24:35;;;;;;;18.75;17.00;;;;;;;10.34;100.00;101126.16;6373770;23;20005;-68
2022/04/25 11:27:12;;;;;;;18.65;16.60;;;;;;;10.16;100.00;101130.19;6373576;23;20010;-69
2022/04/25 11:29:47;;;;;;;19.08;17.08;;;;;;;10.21;100.00;101130.66;6374150;23;20056;-68
2022/04/25 11:32:22;;;;;;;16.27;14.57;;;;;;;10.26;100.00;101136.38;6374296;23;20014;-70
2022/04/25 11:34:59;;;;;;;17.58;15.75;;;;;;;10.24;100.00;101133.84;6373432;23;20038;-71
2022/04/25 11:37:34;;;;;;;18.55;15.80;;;;;;;10.27;100.00;101140.69;6374170;23;20009;-70
2022/04/25 11:40:07;;;;;;;18.17;16.17;;;;;;;10.26;100.00;101146.03;6373264;23;20021;-71
2022/04/25 11:42:38;;;;;;;19.27;17.23;;;;;;;10.33;100.00;101145.41;6371184;23;20032;-69
2022/04/25 11:45:09;;;;;;;18.20;16.38;;;;;;;10.32;100.00;101148.16;6371172;23;20077;-71
2022/04/25 11:47:41;;;;;;;18.30;16.42;;;;;;;10.43;100.00;101143.75;6373222;23;20030;-69
2022/04/25 11:50:12;;;;;;;19.05;16.83;;;;;;;10.45;100.00;101144.47;6373498;23;20315;-69
2022/04/25 11:52:49;;;;;;;19.65;16.90;;;;;;;10.59;100.00;101150.38;6370850;23;20013;-71
2022/04/25 11:55:35;;;;;;;18.10;16.15;;;;;;;10.72;100.00;101153.69;6372001;23;20555;-69
2022/04/25 11:58:06;;;;;;;19.83;17.83;;;;;;;10.64;100.00;101138.56;6371937;23;20010;-69
2022/04/25 12:00:43;;;;;;;19.38;17.38;;;;;;;10.87;100.00;101141.13;6371506;23;20013;-69
2022/04/25 12:03:23;;;;;;;19.50;17.40;;;;;;;10.94;100.00;101148.34;6372738;23;20080;-72
2022/04/25 12:06:06;;;;;;;23.15;19.27;;;;;;;11.01;100.00;101146.06;6372000;23;20010;-72
2022/04/25 12:17:08;;;;;;;20.73;18.50;;;;;;;11.01;100.00;101160.97;6372481;23;20077;-68
2022/04/25 12:19:56;;;;;;;21.02;18.77;;;;;;;11.22;100.00;101155.78;6372810;23;20002;-69
2022/04/25 12:22:28;;;;;;;20.80;18.52;;;;;;;11.09;100.00;101159.38;6373324;23;20010;-70
2022/04/25 12:25:17;;;;;;;20.58;18.42;;;;;;;11.23;100.00;101158.25;6372663;23;20014;-71
2022/04/25 12:28:18;;;;;;;22.05;18.58;;;;;;;11.18;100.00;101161.28;6373753;23;20002;-69